sensor_id;sensor_type;location;lat;lon;timestamp;pressure;altitude;pressure_sealevel;temperature;humidity
39613;BME280;25303;48.896;13.342;2024-01-30T00:06:30;94109.84;;;6.00;23.56
39613;BME280;25303;48.896;13.342;2024-01-30T00:16:35;94105.84;;;5.96;23.63
39613;BME280;25303;48.896;13.342;2024-01-30T00:26:38;94101.66;;;5.95;23.01
39613;BME280;25303;48.896;13.342;2024-01-30T00:36:43;94100.28;;;5.89;22.90
39613;BME280;25303;48.896;13.342;2024-01-30T00:46:46;94095.94;;;5.76;23.41
39613;BME280;25303;48.896;13.342;2024-01-30T00:56:50;94093.25;;;5.65;23.31
39613;BME280;25303;48.896;13.342;2024-01-30T01:06:53;94094.97;;;5.65;22.84
39613;BME280;25303;48.896;13.342;2024-01-30T01:16:58;94091.38;;;5.54;23.13
39613;BME280;25303;48.896;13.342;2024-01-30T01:27:01;94089.91;;;5.50;23.09
39613;BME280;25303;48.896;13.342;2024-01-30T01:37:05;94084.09;;;5.75;22.72
39613;BME280;25303;48.896;13.342;2024-01-30T01:47:09;94073.63;;;5.66;22.72
39613;BME280;25303;48.896;13.342;2024-01-30T01:57:13;94077.00;;;5.66;22.43
39613;BME280;25303;48.896;13.342;2024-01-30T02:07:17;94072.28;;;5.60;22.22
39613;BME280;25303;48.896;13.342;2024-01-30T02:17:21;94072.91;;;5.36;22.25
39613;BME280;25303;48.896;13.342;2024-01-30T02:27:26;94061.25;;;5.32;23.28
39613;BME280;25303;48.896;13.342;2024-01-30T02:37:29;94058.16;;;5.12;23.51
39613;BME280;25303;48.896;13.342;2024-01-30T02:47:34;94057.56;;;4.94;23.42
39613;BME280;25303;48.896;13.342;2024-01-30T02:57:37;94051.28;;;5.00;23.18
39613;BME280;25303;48.896;13.342;2024-01-30T03:07:41;94052.25;;;4.97;22.82
39613;BME280;25303;48.896;13.342;2024-01-30T03:17:44;94048.09;;;4.96;23.06
39613;BME280;25303;48.896;13.342;2024-01-30T03:27:49;94036.69;;;4.59;23.48
39613;BME280;25303;48.896;13.342;2024-01-30T03:37:52;94044.44;;;4.28;24.41
39613;BME280;25303;48.896;13.342;2024-01-30T03:47:56;94044.31;;;4.15;24.38
39613;BME280;25303;48.896;13.342;2024-01-30T03:57:59;94056.25;;;3.84;25.21
39613;BME280;25303;48.896;13.342;2024-01-30T04:08:04;94053.47;;;3.26;24.61
39613;BME280;25303;48.896;13.342;2024-01-30T04:18:07;94044.91;;;3.27;24.51
39613;BME280;25303;48.896;13.342;2024-01-30T04:28:12;94051.66;;;3.44;24.70
39613;BME280;25303;48.896;13.342;2024-01-30T04:38:15;94048.88;;;3.17;25.25
39613;BME280;25303;48.896;13.342;2024-01-30T04:48:19;94044.75;;;3.30;25.39
39613;BME280;25303;48.896;13.342;2024-01-30T04:58:22;94047.47;;;3.27;25.44
39613;BME280;25303;48.896;13.342;2024-01-30T05:08:27;94060.28;;;3.26;26.06
39613;BME280;25303;48.896;13.342;2024-01-30T05:18:30;94069.38;;;3.14;27.17
39613;BME280;25303;48.896;13.342;2024-01-30T05:28:34;94075.94;;;3.34;29.18
39613;BME280;25303;48.896;13.342;2024-01-30T05:38:38;94078.97;;;3.41;30.12
39613;BME280;25303;48.896;13.342;2024-01-30T05:48:42;94078.97;;;3.41;31.06
39613;BME280;25303;48.896;13.342;2024-01-30T05:58:45;94075.88;;;3.19;33.47
39613;BME280;25303;48.896;13.342;2024-01-30T06:08:50;94078.06;;;3.10;32.37
39613;BME280;25303;48.896;13.342;2024-01-30T06:18:53;94083.66;;;3.00;35.00
39613;BME280;25303;48.896;13.342;2024-01-30T06:28:57;94094.19;;;3.10;36.75
39613;BME280;25303;48.896;13.342;2024-01-30T06:39:00;94098.63;;;3.23;35.40
39613;BME280;25303;48.896;13.342;2024-01-30T06:49:05;94099.50;;;3.22;35.45
39613;BME280;25303;48.896;13.342;2024-01-30T06:59:08;94111.75;;;3.15;36.21
39613;BME280;25303;48.896;13.342;2024-01-30T07:09:13;94114.59;;;3.09;36.93
39613;BME280;25303;48.896;13.342;2024-01-30T07:19:16;94116.59;;;3.03;37.54
39613;BME280;25303;48.896;13.342;2024-01-30T07:29:21;94120.59;;;3.08;37.94
39613;BME280;25303;48.896;13.342;2024-01-30T07:39:24;94121.91;;;3.15;38.28
39613;BME280;25303;48.896;13.342;2024-01-30T07:49:28;94122.66;;;3.33;38.21
39613;BME280;25303;48.896;13.342;2024-01-30T07:59:31;94129.59;;;3.63;38.59
39613;BME280;25303;48.896;13.342;2024-01-30T08:09:35;94131.56;;;4.04;38.49
39613;BME280;25303;48.896;13.342;2024-01-30T08:19:38;94137.16;;;4.41;38.35
39613;BME280;25303;48.896;13.342;2024-01-30T08:29:43;94144.75;;;4.72;38.30
39613;BME280;25303;48.896;13.342;2024-01-30T08:39:46;94143.59;;;5.07;38.60
39613;BME280;25303;48.896;13.342;2024-01-30T08:49:51;94134.59;;;5.57;38.20
39613;BME280;25303;48.896;13.342;2024-01-30T08:59:54;94146.47;;;6.28;37.63
39613;BME280;25303;48.896;13.342;2024-01-30T09:09:58;94143.88;;;6.94;37.03
39613;BME280;25303;48.896;13.342;2024-01-30T09:20:02;94142.84;;;7.59;36.72
39613;BME280;25303;48.896;13.342;2024-01-30T09:30:08;94141.75;;;7.88;36.61
39613;BME280;25303;48.896;13.342;2024-01-30T09:40:11;94145.19;;;8.24;35.71
39613;BME280;25303;48.896;13.342;2024-01-30T09:50:16;94155.25;;;8.51;35.74
39613;BME280;25303;48.896;13.342;2024-01-30T10:00:19;94149.00;;;8.67;35.23
39613;BME280;25303;48.896;13.342;2024-01-30T10:10:26;94150.75;;;8.78;34.74
39613;BME280;25303;48.896;13.342;2024-01-30T10:20:29;94141.19;;;8.80;33.69
39613;BME280;25303;48.896;13.342;2024-01-30T10:30:33;94128.25;;;8.93;33.68
39613;BME280;25303;48.896;13.342;2024-01-30T10:40:37;94123.81;;;9.06;33.78
39613;BME280;25303;48.896;13.342;2024-01-30T10:50:43;94113.66;;;9.27;33.45
39613;BME280;25303;48.896;13.342;2024-01-30T11:00:58;94107.00;;;9.36;33.25
39613;BME280;25303;48.896;13.342;2024-01-30T11:11:08;94109.34;;;9.39;33.89
39613;BME280;25303;48.896;13.342;2024-01-30T11:21:13;94119.25;;;9.44;33.74
39613;BME280;25303;48.896;13.342;2024-01-30T11:31:19;94093.44;;;9.46;33.82
39613;BME280;25303;48.896;13.342;2024-01-30T11:41:23;94093.09;;;9.50;33.62
39613;BME280;25303;48.896;13.342;2024-01-30T11:51:30;94077.44;;;9.86;33.23
39613;BME280;25303;48.896;13.342;2024-01-30T12:01:33;94070.81;;;9.83;32.70
39613;BME280;25303;48.896;13.342;2024-01-30T12:11:45;94065.28;;;9.88;32.75
39613;BME280;25303;48.896;13.342;2024-01-30T12:21:53;94049.69;;;9.68;33.06
39613;BME280;25303;48.896;13.342;2024-01-30T12:31:58;94052.56;;;9.86;33.27
39613;BME280;25303;48.896;13.342;2024-01-30T12:42:03;94045.25;;;10.24;32.87
39613;BME280;25303;48.896;13.342;2024-01-30T12:52:07;94045.66;;;10.41;33.10
39613;BME280;25303;48.896;13.342;2024-01-30T13:02:11;94046.50;;;10.41;33.36
39613;BME280;25303;48.896;13.342;2024-01-30T13:12:16;94044.75;;;10.30;33.60
39613;BME280;25303;48.896;13.342;2024-01-30T13:22:19;94036.53;;;10.37;33.73
39613;BME280;25303;48.896;13.342;2024-01-30T13:32:24;94040.66;;;10.28;33.69
39613;BME280;25303;48.896;13.342;2024-01-30T13:42:27;94042.06;;;10.11;33.89
39613;BME280;25303;48.896;13.342;2024-01-30T13:52:32;94037.91;;;9.98;34.35
39613;BME280;25303;48.896;13.342;2024-01-30T14:02:45;94026.38;;;9.81;34.76
39613;BME280;25303;48.896;13.342;2024-01-30T14:12:49;94032.03;;;9.64;34.89
39613;BME280;25303;48.896;13.342;2024-01-30T14:22:52;94028.34;;;9.45;35.44
39613;BME280;25303;48.896;13.342;2024-01-30T14:32:59;94033.66;;;9.21;35.63
39613;BME280;25303;48.896;13.342;2024-01-30T14:43:02;94031.50;;;8.93;35.99
39613;BME280;25303;48.896;13.342;2024-01-30T14:53:07;94027.03;;;8.61;36.64
39613;BME280;25303;48.896;13.342;2024-01-30T15:03:10;94037.34;;;8.37;36.88
39613;BME280;25303;48.896;13.342;2024-01-30T15:13:15;94042.53;;;8.13;37.51
39613;BME280;25303;48.896;13.342;2024-01-30T15:23:18;94044.19;;;7.89;37.72
39613;BME280;25303;48.896;13.342;2024-01-30T15:33:23;94060.03;;;7.59;38.55
39613;BME280;25303;48.896;13.342;2024-01-30T15:43:29;94059.59;;;7.41;38.74
39613;BME280;25303;48.896;13.342;2024-01-30T15:53:36;94069.19;;;7.13;39.33
39613;BME280;25303;48.896;13.342;2024-01-30T16:03:39;94078.84;;;6.83;39.61
39613;BME280;25303;48.896;13.342;2024-01-30T16:13:44;94084.72;;;6.06;41.13
39613;BME280;25303;48.896;13.342;2024-01-30T16:23:47;94096.25;;;5.72;41.41
39613;BME280;25303;48.896;13.342;2024-01-30T16:33:52;94101.59;;;5.54;42.03
39613;BME280;25303;48.896;13.342;2024-01-30T16:43:55;94110.00;;;5.42;42.06
39613;BME280;25303;48.896;13.342;2024-01-30T16:53:59;94106.03;;;5.23;43.02
39613;BME280;25303;48.896;13.342;2024-01-30T17:04:02;94115.25;;;5.11;43.77
39613;BME280;25303;48.896;13.342;2024-01-30T17:14:07;94116.72;;;5.01;44.13
39613;BME280;25303;48.896;13.342;2024-01-30T17:24:10;94121.38;;;4.94;44.53
39613;BME280;25303;48.896;13.342;2024-01-30T17:34:18;94119.28;;;4.86;44.88
39613;BME280;25303;48.896;13.342;2024-01-30T17:44:22;94122.34;;;4.77;45.55
39613;BME280;25303;48.896;13.342;2024-01-30T17:54:26;94129.25;;;4.75;45.71
39613;BME280;25303;48.896;13.342;2024-01-30T18:04:29;94131.63;;;4.64;45.85
39613;BME280;25303;48.896;13.342;2024-01-30T18:14:35;94137.50;;;4.50;46.47
39613;BME280;25303;48.896;13.342;2024-01-30T18:24:39;94142.41;;;4.38;46.70
39613;BME280;25303;48.896;13.342;2024-01-30T18:34:44;94142.41;;;4.38;46.82
39613;BME280;25303;48.896;13.342;2024-01-30T18:44:47;94148.75;;;4.31;47.02
39613;BME280;25303;48.896;13.342;2024-01-30T18:54:52;94146.41;;;4.28;47.82
39613;BME280;25303;48.896;13.342;2024-01-30T19:04:55;94159.59;;;4.20;47.96
39613;BME280;25303;48.896;13.342;2024-01-30T19:15:02;94158.09;;;4.16;48.10
39613;BME280;25303;48.896;13.342;2024-01-30T19:25:06;94163.28;;;4.15;48.40
39613;BME280;25303;48.896;13.342;2024-01-30T19:35:11;94164.22;;;4.14;48.66
39613;BME280;25303;48.896;13.342;2024-01-30T19:45:14;94162.38;;;4.16;48.72
39613;BME280;25303;48.896;13.342;2024-01-30T19:55:18;94170.75;;;4.18;48.10
39613;BME280;25303;48.896;13.342;2024-01-30T20:05:23;94182.53;;;4.20;48.04
39613;BME280;25303;48.896;13.342;2024-01-30T20:15:28;94177.91;;;4.11;48.11
39613;BME280;25303;48.896;13.342;2024-01-30T20:25:32;94171.44;;;4.05;48.23
39613;BME280;25303;48.896;13.342;2024-01-30T20:35:37;94175.56;;;3.92;48.62
39613;BME280;25303;48.896;13.342;2024-01-30T20:45:40;94177.13;;;3.94;48.51
39613;BME280;25303;48.896;13.342;2024-01-30T20:55:44;94184.38;;;3.86;48.41
39613;BME280;25303;48.896;13.342;2024-01-30T21:05:47;94188.72;;;3.68;49.14
39613;BME280;25303;48.896;13.342;2024-01-30T21:15:52;94192.72;;;3.56;49.66
39613;BME280;25303;48.896;13.342;2024-01-30T21:25:55;94190.03;;;3.59;49.78
39613;BME280;25303;48.896;13.342;2024-01-30T21:36:01;94195.53;;;3.52;49.70
39613;BME280;25303;48.896;13.342;2024-01-30T21:46:04;94190.38;;;3.53;49.63
39613;BME280;25303;48.896;13.342;2024-01-30T21:56:10;94191.81;;;3.57;49.74
39613;BME280;25303;48.896;13.342;2024-01-30T22:06:13;94187.47;;;3.59;50.07
39613;BME280;25303;48.896;13.342;2024-01-30T22:16:18;94188.28;;;3.44;50.74
39613;BME280;25303;48.896;13.342;2024-01-30T22:26:21;94193.22;;;3.47;50.37
39613;BME280;25303;48.896;13.342;2024-01-30T22:36:25;94197.25;;;3.51;50.51
39613;BME280;25303;48.896;13.342;2024-01-30T22:46:28;94202.66;;;3.29;51.35
39613;BME280;25303;48.896;13.342;2024-01-30T22:56:33;94208.75;;;3.42;51.34
39613;BME280;25303;48.896;13.342;2024-01-30T23:06:36;94203.91;;;3.54;50.82
39613;BME280;25303;48.896;13.342;2024-01-30T23:16:40;94204.00;;;3.52;51.02
39613;BME280;25303;48.896;13.342;2024-01-30T23:26:44;94213.94;;;3.57;50.95
39613;BME280;25303;48.896;13.342;2024-01-30T23:36:48;94206.59;;;3.50;52.39
39613;BME280;25303;48.896;13.342;2024-01-30T23:46:54;94198.44;;;3.77;50.77
39613;BME280;25303;48.896;13.342;2024-01-30T23:56:58;94204.97;;;3.82;50.53
